sensor_id;sensor_type;location;lat;lon;timestamp;P1;durP1;ratioP1;P2;durP2;ratioP2
46230;SDS011;31949;51.404;-0.038;2023-08-06T00:00:01;3.58;;;2.42;;
46230;SDS011;31949;51.404;-0.038;2023-08-06T00:02:34;2.95;;;2.00;;
46230;SDS011;31949;51.404;-0.038;2023-08-06T00:05:01;4.70;;;1.90;;
46230;SDS011;31949;51.404;-0.038;2023-08-06T00:07:29;3.72;;;2.28;;
46230;SDS011;31949;51.404;-0.038;2023-08-06T00:09:57;3.90;;;2.00;;
46230;SDS011;31949;51.404;-0.038;2023-08-06T00:12:24;4.72;;;1.98;;
46230;SDS011;31949;51.404;-0.038;2023-08-06T00:14:52;4.10;;;2.00;;
46230;SDS011;31949;51.404;-0.038;2023-08-06T00:17:20;3.42;;;1.90;;
46230;SDS011;31949;51.404;-0.038;2023-08-06T00:19:54;3.10;;;1.92;;
46230;SDS011;31949;51.404;-0.038;2023-08-06T00:22:34;3.53;;;1.98;;
46230;SDS011;31949;51.404;-0.038;2023-08-06T00:25:04;4.85;;;2.08;;
46230;SDS011;31949;51.404;-0.038;2023-08-06T00:27:33;5.72;;;2.05;;
46230;SDS011;31949;51.404;-0.038;2023-08-06T00:30:01;5.22;;;1.77;;
46230;SDS011;31949;51.404;-0.038;2023-08-06T00:32:32;3.60;;;2.53;;
46230;SDS011;31949;51.404;-0.038;2023-08-06T00:35:00;5.65;;;1.65;;
46230;SDS011;31949;51.404;-0.038;2023-08-06T00:37:28;6.32;;;2.08;;
46230;SDS011;31949;51.404;-0.038;2023-08-06T00:39:59;2.43;;;1.90;;
46230;SDS011;31949;51.404;-0.038;2023-08-06T00:42:27;2.65;;;2.03;;
46230;SDS011;31949;51.404;-0.038;2023-08-06T00:44:54;3.00;;;1.92;;
46230;SDS011;31949;51.404;-0.038;2023-08-06T00:47:23;3.20;;;1.90;;
46230;SDS011;31949;51.404;-0.038;2023-08-06T00:49:51;7.43;;;2.08;;
46230;SDS011;31949;51.404;-0.038;2023-08-06T00:52:19;3.15;;;2.00;;
46230;SDS011;31949;51.404;-0.038;2023-08-06T00:54:46;2.38;;;2.13;;
46230;SDS011;31949;51.404;-0.038;2023-08-06T00:57:14;3.60;;;1.75;;
46230;SDS011;31949;51.404;-0.038;2023-08-06T00:59:42;4.93;;;2.47;;
46230;SDS011;31949;51.404;-0.038;2023-08-06T01:02:09;4.60;;;2.22;;
46230;SDS011;31949;51.404;-0.038;2023-08-06T01:04:37;4.50;;;2.50;;
46230;SDS011;31949;51.404;-0.038;2023-08-06T01:07:09;5.88;;;2.75;;
46230;SDS011;31949;51.404;-0.038;2023-08-06T01:10:20;4.72;;;2.17;;
46230;SDS011;31949;51.404;-0.038;2023-08-06T01:12:48;4.15;;;2.08;;
46230;SDS011;31949;51.404;-0.038;2023-08-06T01:15:38;3.75;;;1.95;;
46230;SDS011;31949;51.404;-0.038;2023-08-06T01:18:13;5.85;;;2.42;;
46230;SDS011;31949;51.404;-0.038;2023-08-06T01:20:41;3.35;;;2.22;;
46230;SDS011;31949;51.404;-0.038;2023-08-06T01:23:08;6.07;;;2.90;;
46230;SDS011;31949;51.404;-0.038;2023-08-06T01:25:48;5.03;;;2.42;;
46230;SDS011;31949;51.404;-0.038;2023-08-06T01:29:21;3.90;;;2.00;;
46230;SDS011;31949;51.404;-0.038;2023-08-06T01:31:51;5.43;;;2.25;;
46230;SDS011;31949;51.404;-0.038;2023-08-06T01:34:23;3.90;;;1.80;;
46230;SDS011;31949;51.404;-0.038;2023-08-06T01:36:52;3.53;;;2.92;;
46230;SDS011;31949;51.404;-0.038;2023-08-06T01:39:20;4.18;;;2.58;;
46230;SDS011;31949;51.404;-0.038;2023-08-06T01:41:48;3.20;;;2.45;;
46230;SDS011;31949;51.404;-0.038;2023-08-06T01:44:16;4.05;;;3.05;;
46230;SDS011;31949;51.404;-0.038;2023-08-06T01:46:43;6.35;;;2.65;;
46230;SDS011;31949;51.404;-0.038;2023-08-06T01:49:11;7.53;;;3.42;;
46230;SDS011;31949;51.404;-0.038;2023-08-06T01:51:38;5.53;;;3.20;;
46230;SDS011;31949;51.404;-0.038;2023-08-06T01:54:05;7.10;;;3.50;;
46230;SDS011;31949;51.404;-0.038;2023-08-06T01:56:32;5.05;;;3.08;;
46230;SDS011;31949;51.404;-0.038;2023-08-06T01:59:00;9.43;;;3.50;;
46230;SDS011;31949;51.404;-0.038;2023-08-06T02:01:30;5.32;;;2.83;;
46230;SDS011;31949;51.404;-0.038;2023-08-06T02:03:58;5.95;;;3.33;;
46230;SDS011;31949;51.404;-0.038;2023-08-06T02:06:25;7.13;;;3.30;;
46230;SDS011;31949;51.404;-0.038;2023-08-06T02:08:52;5.97;;;3.83;;
46230;SDS011;31949;51.404;-0.038;2023-08-06T02:11:20;5.03;;;3.00;;
46230;SDS011;31949;51.404;-0.038;2023-08-06T02:13:47;9.10;;;4.00;;
46230;SDS011;31949;51.404;-0.038;2023-08-06T02:16:18;7.88;;;4.05;;
46230;SDS011;31949;51.404;-0.038;2023-08-06T02:18:45;5.20;;;3.78;;
46230;SDS011;31949;51.404;-0.038;2023-08-06T02:21:24;5.13;;;2.70;;
46230;SDS011;31949;51.404;-0.038;2023-08-06T02:23:51;4.97;;;3.38;;
46230;SDS011;31949;51.404;-0.038;2023-08-06T02:26:18;4.93;;;2.90;;
46230;SDS011;31949;51.404;-0.038;2023-08-06T02:28:45;5.13;;;3.05;;
46230;SDS011;31949;51.404;-0.038;2023-08-06T02:31:13;6.07;;;3.00;;
46230;SDS011;31949;51.404;-0.038;2023-08-06T02:33:41;8.75;;;2.80;;
46230;SDS011;31949;51.404;-0.038;2023-08-06T02:36:08;5.25;;;3.25;;
46230;SDS011;31949;51.404;-0.038;2023-08-06T02:38:35;6.22;;;2.47;;
46230;SDS011;31949;51.404;-0.038;2023-08-06T02:41:03;3.25;;;2.58;;
46230;SDS011;31949;51.404;-0.038;2023-08-06T02:43:31;3.55;;;2.50;;
46230;SDS011;31949;51.404;-0.038;2023-08-06T02:45:59;8.77;;;3.50;;
46230;SDS011;31949;51.404;-0.038;2023-08-06T02:48:27;7.22;;;3.03;;
46230;SDS011;31949;51.404;-0.038;2023-08-06T02:50:58;5.32;;;2.53;;
46230;SDS011;31949;51.404;-0.038;2023-08-06T02:53:27;4.63;;;2.47;;
46230;SDS011;31949;51.404;-0.038;2023-08-06T02:55:56;4.30;;;2.42;;
46230;SDS011;31949;51.404;-0.038;2023-08-06T02:58:30;7.18;;;2.90;;
46230;SDS011;31949;51.404;-0.038;2023-08-06T03:01:06;6.78;;;3.72;;
46230;SDS011;31949;51.404;-0.038;2023-08-06T03:03:54;5.00;;;2.70;;
46230;SDS011;31949;51.404;-0.038;2023-08-06T03:06:28;4.60;;;2.55;;
46230;SDS011;31949;51.404;-0.038;2023-08-06T03:08:57;3.25;;;2.40;;
46230;SDS011;31949;51.404;-0.038;2023-08-06T03:11:25;4.85;;;2.70;;
46230;SDS011;31949;51.404;-0.038;2023-08-06T03:13:58;7.28;;;3.17;;
46230;SDS011;31949;51.404;-0.038;2023-08-06T03:16:26;4.88;;;2.58;;
46230;SDS011;31949;51.404;-0.038;2023-08-06T03:18:53;3.25;;;2.65;;
46230;SDS011;31949;51.404;-0.038;2023-08-06T03:21:21;5.43;;;2.90;;
46230;SDS011;31949;51.404;-0.038;2023-08-06T03:23:48;5.07;;;3.03;;
46230;SDS011;31949;51.404;-0.038;2023-08-06T03:26:19;4.80;;;2.83;;
46230;SDS011;31949;51.404;-0.038;2023-08-06T03:28:46;4.43;;;2.42;;
46230;SDS011;31949;51.404;-0.038;2023-08-06T03:31:14;4.32;;;2.55;;
46230;SDS011;31949;51.404;-0.038;2023-08-06T03:33:44;6.63;;;3.13;;
46230;SDS011;31949;51.404;-0.038;2023-08-06T03:36:17;5.47;;;2.92;;
46230;SDS011;31949;51.404;-0.038;2023-08-06T03:38:45;4.35;;;2.83;;
46230;SDS011;31949;51.404;-0.038;2023-08-06T03:41:13;7.60;;;3.08;;
46230;SDS011;31949;51.404;-0.038;2023-08-06T03:43:42;5.10;;;2.92;;
46230;SDS011;31949;51.404;-0.038;2023-08-06T03:46:16;5.07;;;2.95;;
46230;SDS011;31949;51.404;-0.038;2023-08-06T03:48:43;4.20;;;2.60;;
46230;SDS011;31949;51.404;-0.038;2023-08-06T03:51:11;9.95;;;3.15;;
46230;SDS011;31949;51.404;-0.038;2023-08-06T03:53:40;6.03;;;2.60;;
46230;SDS011;31949;51.404;-0.038;2023-08-06T03:56:08;4.28;;;2.95;;
46230;SDS011;31949;51.404;-0.038;2023-08-06T03:58:36;4.68;;;2.58;;
46230;SDS011;31949;51.404;-0.038;2023-08-06T04:01:03;2.47;;;2.25;;
46230;SDS011;31949;51.404;-0.038;2023-08-06T04:03:39;4.28;;;3.03;;
46230;SDS011;31949;51.404;-0.038;2023-08-06T04:06:07;4.32;;;2.97;;
46230;SDS011;31949;51.404;-0.038;2023-08-06T04:08:35;3.70;;;2.75;;
46230;SDS011;31949;51.404;-0.038;2023-08-06T04:11:03;5.38;;;3.00;;
46230;SDS011;31949;51.404;-0.038;2023-08-06T04:13:30;5.57;;;2.90;;
46230;SDS011;31949;51.404;-0.038;2023-08-06T04:16:01;5.00;;;3.08;;
46230;SDS011;31949;51.404;-0.038;2023-08-06T04:18:30;4.28;;;2.83;;
46230;SDS011;31949;51.404;-0.038;2023-08-06T04:20:58;4.50;;;1.90;;
46230;SDS011;31949;51.404;-0.038;2023-08-06T04:23:25;4.38;;;2.70;;
46230;SDS011;31949;51.404;-0.038;2023-08-06T04:25:56;6.25;;;2.72;;
46230;SDS011;31949;51.404;-0.038;2023-08-06T04:28:27;4.82;;;3.47;;
46230;SDS011;31949;51.404;-0.038;2023-08-06T04:30:55;4.55;;;3.22;;
46230;SDS011;31949;51.404;-0.038;2023-08-06T04:33:22;3.85;;;2.97;;
46230;SDS011;31949;51.404;-0.038;2023-08-06T04:35:56;5.95;;;2.88;;
46230;SDS011;31949;51.404;-0.038;2023-08-06T04:38:25;5.80;;;3.10;;
46230;SDS011;31949;51.404;-0.038;2023-08-06T04:40:54;6.18;;;2.40;;
46230;SDS011;31949;51.404;-0.038;2023-08-06T04:43:23;5.00;;;2.70;;
46230;SDS011;31949;51.404;-0.038;2023-08-06T04:45:54;4.25;;;2.72;;
46230;SDS011;31949;51.404;-0.038;2023-08-06T04:48:22;4.80;;;2.75;;
46230;SDS011;31949;51.404;-0.038;2023-08-06T04:50:50;4.18;;;3.40;;
46230;SDS011;31949;51.404;-0.038;2023-08-06T04:53:17;3.65;;;2.92;;
46230;SDS011;31949;51.404;-0.038;2023-08-06T04:55:45;7.28;;;3.22;;
46230;SDS011;31949;51.404;-0.038;2023-08-06T04:58:12;8.10;;;3.25;;
46230;SDS011;31949;51.404;-0.038;2023-08-06T05:00:40;4.45;;;2.95;;
46230;SDS011;31949;51.404;-0.038;2023-08-06T05:03:07;5.25;;;3.10;;
46230;SDS011;31949;51.404;-0.038;2023-08-06T05:05:34;8.20;;;3.60;;
46230;SDS011;31949;51.404;-0.038;2023-08-06T05:08:02;8.13;;;3.35;;
46230;SDS011;31949;51.404;-0.038;2023-08-06T05:10:29;6.35;;;3.80;;
46230;SDS011;31949;51.404;-0.038;2023-08-06T05:12:56;4.22;;;3.17;;
46230;SDS011;31949;51.404;-0.038;2023-08-06T05:15:24;8.60;;;3.03;;
46230;SDS011;31949;51.404;-0.038;2023-08-06T05:17:52;4.10;;;2.55;;
46230;SDS011;31949;51.404;-0.038;2023-08-06T05:20:20;6.30;;;2.50;;
46230;SDS011;31949;51.404;-0.038;2023-08-06T05:22:48;3.15;;;2.85;;
46230;SDS011;31949;51.404;-0.038;2023-08-06T05:25:15;9.75;;;4.25;;
46230;SDS011;31949;51.404;-0.038;2023-08-06T05:27:43;9.70;;;3.92;;
46230;SDS011;31949;51.404;-0.038;2023-08-06T05:30:10;6.47;;;3.45;;
46230;SDS011;31949;51.404;-0.038;2023-08-06T05:32:37;4.45;;;2.83;;
46230;SDS011;31949;51.404;-0.038;2023-08-06T05:35:05;5.00;;;2.97;;
46230;SDS011;31949;51.404;-0.038;2023-08-06T05:37:32;5.32;;;3.08;;
46230;SDS011;31949;51.404;-0.038;2023-08-06T05:40:00;3.72;;;2.95;;
46230;SDS011;31949;51.404;-0.038;2023-08-06T05:42:29;7.00;;;3.40;;
46230;SDS011;31949;51.404;-0.038;2023-08-06T05:44:56;4.68;;;3.10;;
46230;SDS011;31949;51.404;-0.038;2023-08-06T05:47:23;7.07;;;3.40;;
46230;SDS011;31949;51.404;-0.038;2023-08-06T05:49:51;4.75;;;3.20;;
46230;SDS011;31949;51.404;-0.038;2023-08-06T05:52:18;7.13;;;2.88;;
46230;SDS011;31949;51.404;-0.038;2023-08-06T05:54:45;6.53;;;3.20;;
46230;SDS011;31949;51.404;-0.038;2023-08-06T05:57:13;4.00;;;2.95;;
46230;SDS011;31949;51.404;-0.038;2023-08-06T05:59:40;5.55;;;3.10;;
46230;SDS011;31949;51.404;-0.038;2023-08-06T06:02:08;4.25;;;2.95;;
46230;SDS011;31949;51.404;-0.038;2023-08-06T06:04:36;5.15;;;3.42;;
46230;SDS011;31949;51.404;-0.038;2023-08-06T06:07:04;5.25;;;2.90;;
46230;SDS011;31949;51.404;-0.038;2023-08-06T06:09:32;3.53;;;2.80;;
46230;SDS011;31949;51.404;-0.038;2023-08-06T06:11:59;7.85;;;3.03;;
46230;SDS011;31949;51.404;-0.038;2023-08-06T06:14:26;4.40;;;2.72;;
46230;SDS011;31949;51.404;-0.038;2023-08-06T06:16:53;4.57;;;2.72;;
46230;SDS011;31949;51.404;-0.038;2023-08-06T06:19:21;6.15;;;3.25;;
46230;SDS011;31949;51.404;-0.038;2023-08-06T06:21:48;4.40;;;2.65;;
46230;SDS011;31949;51.404;-0.038;2023-08-06T06:24:15;5.57;;;3.40;;
46230;SDS011;31949;51.404;-0.038;2023-08-06T06:26:42;4.68;;;2.40;;
46230;SDS011;31949;51.404;-0.038;2023-08-06T06:29:10;7.07;;;2.85;;
46230;SDS011;31949;51.404;-0.038;2023-08-06T06:31:37;4.25;;;2.47;;
46230;SDS011;31949;51.404;-0.038;2023-08-06T06:34:04;3.75;;;2.63;;
46230;SDS011;31949;51.404;-0.038;2023-08-06T06:36:31;4.35;;;2.45;;
46230;SDS011;31949;51.404;-0.038;2023-08-06T06:38:59;4.07;;;2.75;;
46230;SDS011;31949;51.404;-0.038;2023-08-06T06:41:26;5.72;;;2.88;;
46230;SDS011;31949;51.404;-0.038;2023-08-06T06:44:03;3.55;;;2.60;;
46230;SDS011;31949;51.404;-0.038;2023-08-06T06:46:30;5.40;;;2.80;;
46230;SDS011;31949;51.404;-0.038;2023-08-06T06:48:57;4.10;;;2.60;;
46230;SDS011;31949;51.404;-0.038;2023-08-06T06:51:25;5.82;;;2.72;;
46230;SDS011;31949;51.404;-0.038;2023-08-06T06:53:52;3.80;;;2.60;;
46230;SDS011;31949;51.404;-0.038;2023-08-06T06:56:19;3.03;;;2.67;;
46230;SDS011;31949;51.404;-0.038;2023-08-06T06:58:46;4.45;;;2.92;;
46230;SDS011;31949;51.404;-0.038;2023-08-06T07:01:14;4.88;;;2.67;;
46230;SDS011;31949;51.404;-0.038;2023-08-06T07:03:41;3.35;;;2.33;;
46230;SDS011;31949;51.404;-0.038;2023-08-06T07:06:08;4.40;;;2.38;;
46230;SDS011;31949;51.404;-0.038;2023-08-06T07:08:36;5.50;;;2.78;;
46230;SDS011;31949;51.404;-0.038;2023-08-06T07:11:03;4.53;;;2.47;;
46230;SDS011;31949;51.404;-0.038;2023-08-06T07:13:32;4.07;;;2.20;;
46230;SDS011;31949;51.404;-0.038;2023-08-06T07:16:00;5.40;;;2.72;;
46230;SDS011;31949;51.404;-0.038;2023-08-06T07:18:27;4.47;;;3.03;;
46230;SDS011;31949;51.404;-0.038;2023-08-06T07:20:55;5.13;;;3.30;;
46230;SDS011;31949;51.404;-0.038;2023-08-06T07:23:23;4.38;;;2.70;;
46230;SDS011;31949;51.404;-0.038;2023-08-06T07:25:51;4.53;;;2.58;;
46230;SDS011;31949;51.404;-0.038;2023-08-06T07:28:19;2.30;;;2.00;;
46230;SDS011;31949;51.404;-0.038;2023-08-06T07:30:46;3.78;;;2.40;;
46230;SDS011;31949;51.404;-0.038;2023-08-06T07:33:14;2.75;;;2.15;;
46230;SDS011;31949;51.404;-0.038;2023-08-06T07:35:41;5.60;;;2.28;;
46230;SDS011;31949;51.404;-0.038;2023-08-06T07:38:10;2.65;;;2.28;;
46230;SDS011;31949;51.404;-0.038;2023-08-06T07:40:38;4.90;;;2.40;;
46230;SDS011;31949;51.404;-0.038;2023-08-06T07:43:05;3.25;;;2.40;;
46230;SDS011;31949;51.404;-0.038;2023-08-06T07:45:33;2.40;;;2.15;;
46230;SDS011;31949;51.404;-0.038;2023-08-06T07:48:02;3.03;;;1.92;;
46230;SDS011;31949;51.404;-0.038;2023-08-06T07:50:30;3.58;;;1.90;;
46230;SDS011;31949;51.404;-0.038;2023-08-06T07:52:57;3.53;;;2.22;;
46230;SDS011;31949;51.404;-0.038;2023-08-06T07:55:25;4.65;;;2.40;;
46230;SDS011;31949;51.404;-0.038;2023-08-06T07:57:53;2.88;;;1.90;;
46230;SDS011;31949;51.404;-0.038;2023-08-06T08:00:20;4.57;;;1.73;;
46230;SDS011;31949;51.404;-0.038;2023-08-06T08:02:48;4.05;;;1.73;;
46230;SDS011;31949;51.404;-0.038;2023-08-06T08:05:15;2.65;;;2.03;;
46230;SDS011;31949;51.404;-0.038;2023-08-06T08:07:43;3.72;;;2.17;;
46230;SDS011;31949;51.404;-0.038;2023-08-06T08:10:11;4.72;;;2.65;;
46230;SDS011;31949;51.404;-0.038;2023-08-06T08:12:38;2.75;;;2.05;;
46230;SDS011;31949;51.404;-0.038;2023-08-06T08:15:05;4.88;;;1.80;;
46230;SDS011;31949;51.404;-0.038;2023-08-06T08:17:33;4.93;;;2.10;;
46230;SDS011;31949;51.404;-0.038;2023-08-06T08:20:01;2.60;;;1.40;;
46230;SDS011;31949;51.404;-0.038;2023-08-06T08:22:29;3.05;;;1.77;;
46230;SDS011;31949;51.404;-0.038;2023-08-06T08:24:56;3.70;;;2.20;;
46230;SDS011;31949;51.404;-0.038;2023-08-06T08:27:23;2.83;;;2.25;;
46230;SDS011;31949;51.404;-0.038;2023-08-06T08:29:51;4.22;;;2.20;;
46230;SDS011;31949;51.404;-0.038;2023-08-06T08:32:19;3.22;;;2.10;;
46230;SDS011;31949;51.404;-0.038;2023-08-06T08:34:47;2.55;;;1.80;;
46230;SDS011;31949;51.404;-0.038;2023-08-06T08:37:15;2.47;;;1.83;;
46230;SDS011;31949;51.404;-0.038;2023-08-06T08:39:42;4.15;;;1.67;;
46230;SDS011;31949;51.404;-0.038;2023-08-06T08:42:10;2.40;;;1.52;;
46230;SDS011;31949;51.404;-0.038;2023-08-06T08:44:37;2.70;;;1.95;;
46230;SDS011;31949;51.404;-0.038;2023-08-06T08:47:06;4.15;;;1.67;;
46230;SDS011;31949;51.404;-0.038;2023-08-06T08:49:36;2.50;;;1.98;;
46230;SDS011;31949;51.404;-0.038;2023-08-06T08:52:04;5.22;;;1.92;;
46230;SDS011;31949;51.404;-0.038;2023-08-06T08:54:37;3.97;;;2.00;;
46230;SDS011;31949;51.404;-0.038;2023-08-06T08:57:05;3.03;;;1.63;;
46230;SDS011;31949;51.404;-0.038;2023-08-06T08:59:33;2.53;;;1.85;;
46230;SDS011;31949;51.404;-0.038;2023-08-06T09:02:01;4.35;;;1.70;;
46230;SDS011;31949;51.404;-0.038;2023-08-06T09:04:29;2.38;;;1.70;;
46230;SDS011;31949;51.404;-0.038;2023-08-06T09:07:00;3.03;;;1.80;;
46230;SDS011;31949;51.404;-0.038;2023-08-06T09:09:31;3.28;;;1.80;;
46230;SDS011;31949;51.404;-0.038;2023-08-06T09:12:01;2.90;;;1.30;;
46230;SDS011;31949;51.404;-0.038;2023-08-06T09:14:32;3.03;;;2.13;;
46230;SDS011;31949;51.404;-0.038;2023-08-06T09:17:00;3.15;;;1.58;;
46230;SDS011;31949;51.404;-0.038;2023-08-06T09:19:28;5.00;;;2.75;;
46230;SDS011;31949;51.404;-0.038;2023-08-06T09:21:55;2.05;;;1.60;;
46230;SDS011;31949;51.404;-0.038;2023-08-06T09:24:23;3.47;;;1.50;;
46230;SDS011;31949;51.404;-0.038;2023-08-06T09:26:50;4.22;;;2.10;;
46230;SDS011;31949;51.404;-0.038;2023-08-06T09:29:18;2.58;;;1.85;;
46230;SDS011;31949;51.404;-0.038;2023-08-06T09:31:49;4.75;;;2.03;;
46230;SDS011;31949;51.404;-0.038;2023-08-06T09:34:21;3.85;;;1.92;;
46230;SDS011;31949;51.404;-0.038;2023-08-06T09:36:50;2.42;;;1.55;;
46230;SDS011;31949;51.404;-0.038;2023-08-06T09:39:19;4.13;;;2.05;;
46230;SDS011;31949;51.404;-0.038;2023-08-06T09:41:57;2.15;;;1.50;;
46230;SDS011;31949;51.404;-0.038;2023-08-06T09:44:27;2.15;;;1.77;;
46230;SDS011;31949;51.404;-0.038;2023-08-06T09:47:06;2.85;;;1.88;;
46230;SDS011;31949;51.404;-0.038;2023-08-06T09:52:01;1.92;;;1.60;;
46230;SDS011;31949;51.404;-0.038;2023-08-06T09:54:30;3.35;;;2.40;;
46230;SDS011;31949;51.404;-0.038;2023-08-06T09:57:02;3.47;;;1.23;;
46230;SDS011;31949;51.404;-0.038;2023-08-06T09:59:29;3.38;;;2.08;;
46230;SDS011;31949;51.404;-0.038;2023-08-06T10:01:58;2.38;;;1.83;;
46230;SDS011;31949;51.404;-0.038;2023-08-06T10:04:26;2.88;;;1.70;;
46230;SDS011;31949;51.404;-0.038;2023-08-06T10:07:06;1.98;;;1.38;;
46230;SDS011;31949;51.404;-0.038;2023-08-06T10:09:35;3.47;;;1.77;;
46230;SDS011;31949;51.404;-0.038;2023-08-06T10:12:02;3.50;;;1.55;;
46230;SDS011;31949;51.404;-0.038;2023-08-06T10:14:36;3.05;;;1.42;;
46230;SDS011;31949;51.404;-0.038;2023-08-06T10:17:04;2.83;;;1.50;;
46230;SDS011;31949;51.404;-0.038;2023-08-06T10:19:32;2.00;;;1.42;;
46230;SDS011;31949;51.404;-0.038;2023-08-06T10:22:13;4.90;;;1.70;;
46230;SDS011;31949;51.404;-0.038;2023-08-06T10:27:13;3.45;;;2.10;;
46230;SDS011;31949;51.404;-0.038;2023-08-06T10:29:41;1.58;;;1.40;;
46230;SDS011;31949;51.404;-0.038;2023-08-06T10:34:56;2.90;;;1.98;;
46230;SDS011;31949;51.404;-0.038;2023-08-06T10:37:35;2.15;;;1.50;;
46230;SDS011;31949;51.404;-0.038;2023-08-06T10:40:13;6.03;;;1.70;;
46230;SDS011;31949;51.404;-0.038;2023-08-06T10:42:47;3.22;;;1.60;;
46230;SDS011;31949;51.404;-0.038;2023-08-06T10:45:15;1.65;;;1.48;;
46230;SDS011;31949;51.404;-0.038;2023-08-06T10:47:47;4.68;;;1.65;;
46230;SDS011;31949;51.404;-0.038;2023-08-06T10:50:17;2.67;;;1.58;;
46230;SDS011;31949;51.404;-0.038;2023-08-06T10:52:45;1.88;;;1.60;;
46230;SDS011;31949;51.404;-0.038;2023-08-06T10:55:14;3.38;;;1.83;;
46230;SDS011;31949;51.404;-0.038;2023-08-06T10:57:48;3.10;;;1.75;;
46230;SDS011;31949;51.404;-0.038;2023-08-06T11:00:15;1.98;;;1.48;;
46230;SDS011;31949;51.404;-0.038;2023-08-06T11:02:43;2.63;;;1.83;;
46230;SDS011;31949;51.404;-0.038;2023-08-06T11:05:11;2.42;;;2.00;;
46230;SDS011;31949;51.404;-0.038;2023-08-06T11:07:38;3.50;;;1.42;;
46230;SDS011;31949;51.404;-0.038;2023-08-06T11:10:06;2.13;;;1.40;;
46230;SDS011;31949;51.404;-0.038;2023-08-06T11:12:35;1.80;;;1.70;;
46230;SDS011;31949;51.404;-0.038;2023-08-06T11:15:03;2.60;;;1.70;;
46230;SDS011;31949;51.404;-0.038;2023-08-06T11:17:32;3.42;;;1.70;;
46230;SDS011;31949;51.404;-0.038;2023-08-06T11:20:00;2.45;;;1.50;;
46230;SDS011;31949;51.404;-0.038;2023-08-06T11:22:30;2.90;;;1.60;;
46230;SDS011;31949;51.404;-0.038;2023-08-06T11:24:58;3.55;;;1.75;;
46230;SDS011;31949;51.404;-0.038;2023-08-06T11:27:29;3.25;;;1.73;;
46230;SDS011;31949;51.404;-0.038;2023-08-06T11:29:56;3.58;;;1.77;;
46230;SDS011;31949;51.404;-0.038;2023-08-06T11:32:24;2.35;;;1.85;;
46230;SDS011;31949;51.404;-0.038;2023-08-06T11:34:52;4.85;;;1.67;;
46230;SDS011;31949;51.404;-0.038;2023-08-06T11:37:22;3.10;;;1.60;;
46230;SDS011;31949;51.404;-0.038;2023-08-06T11:39:51;2.42;;;1.70;;
46230;SDS011;31949;51.404;-0.038;2023-08-06T11:42:19;1.73;;;1.55;;
46230;SDS011;31949;51.404;-0.038;2023-08-06T11:44:47;2.63;;;1.65;;
46230;SDS011;31949;51.404;-0.038;2023-08-06T11:47:15;3.10;;;1.77;;
46230;SDS011;31949;51.404;-0.038;2023-08-06T11:49:44;2.75;;;1.60;;
46230;SDS011;31949;51.404;-0.038;2023-08-06T11:52:21;3.78;;;1.98;;
46230;SDS011;31949;51.404;-0.038;2023-08-06T11:57:37;3.10;;;2.05;;
46230;SDS011;31949;51.404;-0.038;2023-08-06T12:00:08;6.85;;;1.88;;
46230;SDS011;31949;51.404;-0.038;2023-08-06T12:02:43;3.05;;;1.77;;
46230;SDS011;31949;51.404;-0.038;2023-08-06T12:05:23;2.90;;;1.85;;
46230;SDS011;31949;51.404;-0.038;2023-08-06T12:07:56;1.90;;;1.70;;
46230;SDS011;31949;51.404;-0.038;2023-08-06T12:10:26;1.63;;;1.42;;
46230;SDS011;31949;51.404;-0.038;2023-08-06T12:12:54;2.65;;;1.70;;
46230;SDS011;31949;51.404;-0.038;2023-08-06T12:15:22;2.50;;;1.67;;
46230;SDS011;31949;51.404;-0.038;2023-08-06T12:17:51;2.45;;;1.52;;
46230;SDS011;31949;51.404;-0.038;2023-08-06T12:20:19;4.82;;;1.73;;
46230;SDS011;31949;51.404;-0.038;2023-08-06T12:22:46;2.50;;;0.93;;
46230;SDS011;31949;51.404;-0.038;2023-08-06T12:25:14;1.92;;;1.40;;
46230;SDS011;31949;51.404;-0.038;2023-08-06T12:27:42;1.63;;;1.20;;
46230;SDS011;31949;51.404;-0.038;2023-08-06T12:30:10;1.80;;;1.40;;
46230;SDS011;31949;51.404;-0.038;2023-08-06T12:32:39;2.00;;;1.20;;
46230;SDS011;31949;51.404;-0.038;2023-08-06T12:35:09;1.90;;;1.50;;
46230;SDS011;31949;51.404;-0.038;2023-08-06T12:37:37;1.70;;;1.20;;
46230;SDS011;31949;51.404;-0.038;2023-08-06T12:40:07;3.00;;;1.85;;
46230;SDS011;31949;51.404;-0.038;2023-08-06T12:42:54;2.05;;;1.58;;
46230;SDS011;31949;51.404;-0.038;2023-08-06T12:45:22;1.40;;;1.30;;
46230;SDS011;31949;51.404;-0.038;2023-08-06T12:47:49;2.30;;;1.50;;
46230;SDS011;31949;51.404;-0.038;2023-08-06T12:50:17;1.60;;;1.50;;
46230;SDS011;31949;51.404;-0.038;2023-08-06T12:52:44;2.97;;;1.92;;
46230;SDS011;31949;51.404;-0.038;2023-08-06T12:55:12;1.85;;;1.40;;
46230;SDS011;31949;51.404;-0.038;2023-08-06T12:57:39;2.75;;;1.40;;
46230;SDS011;31949;51.404;-0.038;2023-08-06T13:00:24;3.15;;;1.38;;
46230;SDS011;31949;51.404;-0.038;2023-08-06T13:02:52;2.47;;;1.40;;
46230;SDS011;31949;51.404;-0.038;2023-08-06T13:05:20;1.90;;;1.50;;
46230;SDS011;31949;51.404;-0.038;2023-08-06T13:07:47;2.25;;;1.35;;
46230;SDS011;31949;51.404;-0.038;2023-08-06T13:10:14;2.22;;;1.75;;
46230;SDS011;31949;51.404;-0.038;2023-08-06T13:12:43;1.38;;;1.27;;
46230;SDS011;31949;51.404;-0.038;2023-08-06T13:15:10;1.88;;;1.10;;
46230;SDS011;31949;51.404;-0.038;2023-08-06T13:17:37;1.15;;;1.08;;
46230;SDS011;31949;51.404;-0.038;2023-08-06T13:20:05;2.03;;;1.40;;
46230;SDS011;31949;51.404;-0.038;2023-08-06T13:22:33;1.20;;;1.10;;
46230;SDS011;31949;51.404;-0.038;2023-08-06T13:25:01;1.88;;;1.42;;
46230;SDS011;31949;51.404;-0.038;2023-08-06T13:27:29;2.92;;;1.58;;
46230;SDS011;31949;51.404;-0.038;2023-08-06T13:29:56;3.40;;;1.65;;
46230;SDS011;31949;51.404;-0.038;2023-08-06T13:32:23;2.17;;;1.50;;
46230;SDS011;31949;51.404;-0.038;2023-08-06T13:34:50;2.63;;;1.58;;
46230;SDS011;31949;51.404;-0.038;2023-08-06T13:37:17;1.75;;;1.38;;
46230;SDS011;31949;51.404;-0.038;2023-08-06T13:39:45;1.58;;;1.10;;
46230;SDS011;31949;51.404;-0.038;2023-08-06T13:42:12;1.55;;;1.27;;
46230;SDS011;31949;51.404;-0.038;2023-08-06T13:44:39;0.95;;;0.82;;
46230;SDS011;31949;51.404;-0.038;2023-08-06T13:47:06;2.28;;;0.90;;
46230;SDS011;31949;51.404;-0.038;2023-08-06T13:49:33;1.52;;;1.40;;
46230;SDS011;31949;51.404;-0.038;2023-08-06T13:52:02;1.65;;;1.00;;
46230;SDS011;31949;51.404;-0.038;2023-08-06T13:54:47;0.70;;;0.70;;
46230;SDS011;31949;51.404;-0.038;2023-08-06T13:57:14;1.30;;;1.00;;
46230;SDS011;31949;51.404;-0.038;2023-08-06T13:59:44;1.45;;;0.82;;
46230;SDS011;31949;51.404;-0.038;2023-08-06T14:02:11;1.92;;;1.10;;
46230;SDS011;31949;51.404;-0.038;2023-08-06T14:04:39;1.20;;;1.10;;
46230;SDS011;31949;51.404;-0.038;2023-08-06T14:07:06;2.15;;;0.80;;
46230;SDS011;31949;51.404;-0.038;2023-08-06T14:09:34;1.65;;;1.08;;
46230;SDS011;31949;51.404;-0.038;2023-08-06T14:12:01;1.27;;;0.80;;
46230;SDS011;31949;51.404;-0.038;2023-08-06T14:14:29;1.05;;;0.60;;
46230;SDS011;31949;51.404;-0.038;2023-08-06T14:16:57;1.70;;;0.95;;
46230;SDS011;31949;51.404;-0.038;2023-08-06T14:19:25;1.92;;;0.88;;
46230;SDS011;31949;51.404;-0.038;2023-08-06T14:21:52;2.92;;;0.95;;
46230;SDS011;31949;51.404;-0.038;2023-08-06T14:24:19;1.90;;;0.90;;
46230;SDS011;31949;51.404;-0.038;2023-08-06T14:26:47;2.20;;;1.23;;
46230;SDS011;31949;51.404;-0.038;2023-08-06T14:29:14;1.20;;;0.75;;
46230;SDS011;31949;51.404;-0.038;2023-08-06T14:31:41;0.90;;;0.75;;
46230;SDS011;31949;51.404;-0.038;2023-08-06T14:34:08;1.13;;;0.60;;
46230;SDS011;31949;51.404;-0.038;2023-08-06T14:36:36;1.08;;;0.93;;
46230;SDS011;31949;51.404;-0.038;2023-08-06T14:39:03;0.95;;;0.75;;
46230;SDS011;31949;51.404;-0.038;2023-08-06T14:41:30;1.15;;;0.90;;
46230;SDS011;31949;51.404;-0.038;2023-08-06T14:43:57;2.53;;;0.82;;
46230;SDS011;31949;51.404;-0.038;2023-08-06T14:46:25;1.00;;;0.80;;
46230;SDS011;31949;51.404;-0.038;2023-08-06T14:48:52;1.48;;;1.00;;
46230;SDS011;31949;51.404;-0.038;2023-08-06T14:51:19;2.08;;;0.90;;
46230;SDS011;31949;51.404;-0.038;2023-08-06T14:53:47;0.75;;;0.60;;